createdAt,value
2022-12-07T00:01:42.065Z,21.10
2022-12-07T00:04:12.278Z,22.23
2022-12-07T00:06:46.539Z,21.60
2022-12-07T00:09:15.450Z,19.50
2022-12-07T00:11:42.707Z,23.67
2022-12-07T00:14:13.192Z,22.38
2022-12-07T00:16:39.735Z,23.30
2022-12-07T00:19:06.103Z,22.55
2022-12-07T00:21:34.800Z,21.77
2022-12-07T00:24:01.718Z,20.80
2022-12-07T00:26:33.086Z,20.52
2022-12-07T00:29:02.317Z,23.88
2022-12-07T00:31:31.959Z,25.52
2022-12-07T00:33:58.670Z,20.58
2022-12-07T00:36:27.193Z,21.92
2022-12-07T00:38:54.687Z,23.83
2022-12-07T00:41:23.076Z,22.52
2022-12-07T00:43:50.159Z,22.10
2022-12-07T00:46:17.087Z,23.85
2022-12-07T00:48:43.771Z,24.27
2022-12-07T00:51:14.309Z,20.70
2022-12-07T00:53:42.082Z,21.58
2022-12-07T00:56:10.909Z,23.98
2022-12-07T00:58:37.309Z,22.20
2022-12-07T01:01:04.932Z,21.55
2022-12-07T01:03:31.654Z,21.95
2022-12-07T01:05:58.107Z,21.85
2022-12-07T01:08:26.308Z,24.73
2022-12-07T01:11:04.697Z,24.08
2022-12-07T01:13:31.849Z,20.63
2022-12-07T01:16:00.925Z,25.77
2022-12-07T01:18:29.080Z,21.65
2022-12-07T01:21:06.365Z,23.42
2022-12-07T01:23:34.382Z,22.33
2022-12-07T01:26:02.350Z,22.98
2022-12-07T01:28:28.964Z,20.15
2022-12-07T01:30:59.667Z,20.48
2022-12-07T01:33:28.605Z,18.45
2022-12-07T01:35:55.189Z,21.10
2022-12-07T01:38:21.553Z,20.08
2022-12-07T01:40:55.272Z,22.25
2022-12-07T01:43:22.124Z,23.40
2022-12-07T01:45:48.462Z,19.42
2022-12-07T01:48:17.508Z,21.30
2022-12-07T01:50:45.555Z,17.90
2022-12-07T01:53:12.391Z,18.08
2022-12-07T01:55:42.802Z,18.67
2022-12-07T01:58:09.945Z,19.00
2022-12-07T02:00:36.330Z,19.27
2022-12-07T02:03:08.541Z,20.88
2022-12-07T02:05:36.610Z,21.00
2022-12-07T02:08:04.213Z,19.98
2022-12-07T02:10:31.860Z,19.70
2022-12-07T02:13:09.378Z,17.48
2022-12-07T02:15:46.427Z,17.42
2022-12-07T02:18:50.766Z,17.00
2022-12-07T02:21:31.303Z,16.92
2022-12-07T02:24:28.561Z,19.55
2022-12-07T02:27:13.862Z,17.67
2022-12-07T02:29:48.572Z,17.75
2022-12-07T02:32:37.508Z,16.48
2022-12-07T02:35:09.937Z,16.98
2022-12-07T02:37:41.258Z,20.42
2022-12-07T02:40:19.417Z,18.38
2022-12-07T02:42:52.969Z,17.58
2022-12-07T02:45:22.317Z,17.42
2022-12-07T02:47:52.970Z,17.45
2022-12-07T02:50:21.428Z,19.08
2022-12-07T02:52:47.848Z,17.00
2022-12-07T02:55:16.782Z,18.05
2022-12-07T02:58:09.385Z,17.55
2022-12-07T03:00:45.472Z,19.77
2022-12-07T03:03:13.652Z,18.70
2022-12-07T03:05:59.464Z,17.48
2022-12-07T03:08:40.027Z,16.15
2022-12-07T03:11:07.968Z,17.58
2022-12-07T03:14:01.553Z,16.25
2022-12-07T03:16:34.582Z,17.73
2022-12-07T03:19:04.726Z,17.77
2022-12-07T03:21:35.198Z,16.95
2022-12-07T03:24:05.900Z,17.30
2022-12-07T03:26:35.689Z,16.23
2022-12-07T03:29:06.673Z,18.27
2022-12-07T03:31:35.279Z,15.27
2022-12-07T03:34:12.513Z,16.60
2022-12-07T03:36:44.461Z,14.45
2022-12-07T03:39:41.065Z,15.32
2022-12-07T03:42:08.949Z,19.27
2022-12-07T03:44:35.967Z,14.95
2022-12-07T03:47:23.852Z,15.80
2022-12-07T03:49:54.362Z,17.08
2022-12-07T03:52:40.579Z,15.82
2022-12-07T03:55:15.740Z,15.65
2022-12-07T03:57:43.121Z,15.32
2022-12-07T04:00:11.400Z,14.82
2022-12-07T04:02:37.819Z,15.05
2022-12-07T04:05:04.595Z,13.88
2022-12-07T04:07:30.928Z,16.50
2022-12-07T04:09:57.452Z,14.63
2022-12-07T04:12:24.444Z,16.20
2022-12-07T04:14:50.773Z,16.85
2022-12-07T04:17:17.437Z,14.45
2022-12-07T04:19:43.797Z,14.27
2022-12-07T04:22:10.121Z,16.63
2022-12-07T04:24:36.588Z,14.45
2022-12-07T04:27:04.083Z,16.00
2022-12-07T04:29:30.463Z,14.40
2022-12-07T04:31:57.089Z,15.35
2022-12-07T04:34:23.469Z,13.80
2022-12-07T04:36:49.828Z,15.18
2022-12-07T04:39:24.692Z,14.30
2022-12-07T04:41:51.094Z,15.73
2022-12-07T04:44:18.206Z,17.55
2022-12-07T04:46:45.006Z,15.13
2022-12-07T04:49:12.448Z,16.58
2022-12-07T04:51:38.907Z,18.15
2022-12-07T04:54:05.452Z,15.43
2022-12-07T04:56:31.811Z,19.75
2022-12-07T04:58:58.342Z,17.67
2022-12-07T05:01:25.280Z,16.40
2022-12-07T05:03:51.838Z,14.88
2022-12-07T05:06:18.181Z,13.85
2022-12-07T05:08:44.532Z,16.48
2022-12-07T05:11:31.181Z,16.45
2022-12-07T05:13:58.010Z,14.73
2022-12-07T05:16:24.694Z,16.33
2022-12-07T05:18:51.113Z,18.38
2022-12-07T05:21:17.428Z,17.42
2022-12-07T05:23:43.845Z,18.98
2022-12-07T05:26:10.185Z,18.17
2022-12-07T05:28:36.557Z,17.08
2022-12-07T05:31:02.935Z,14.68
2022-12-07T05:33:29.260Z,14.73
2022-12-07T05:35:55.614Z,15.02
2022-12-07T05:38:22.025Z,16.48
2022-12-07T05:40:48.352Z,15.40
2022-12-07T05:43:14.697Z,15.98
2022-12-07T05:45:41.192Z,15.05
2022-12-07T05:48:07.564Z,15.40
2022-12-07T05:50:33.885Z,15.00
2022-12-07T05:53:00.380Z,16.00
2022-12-07T05:55:26.777Z,19.38
2022-12-07T05:58:11.701Z,18.80
2022-12-07T06:00:38.071Z,14.20
2022-12-07T06:03:04.621Z,16.02
2022-12-07T06:05:31.106Z,16.35
2022-12-07T06:08:02.640Z,17.30
2022-12-07T06:10:32.272Z,17.35
2022-12-07T06:12:58.648Z,17.95
2022-12-07T06:15:25.023Z,18.05
2022-12-07T06:17:51.398Z,16.38
2022-12-07T06:20:17.772Z,17.02
2022-12-07T06:22:44.175Z,14.98
2022-12-07T06:25:10.843Z,15.93
2022-12-07T06:27:37.328Z,17.30
2022-12-07T06:30:07.737Z,19.80
2022-12-07T06:32:34.740Z,16.63
2022-12-07T06:35:01.775Z,15.90
2022-12-07T06:37:28.208Z,15.75
2022-12-07T06:39:54.701Z,17.27
2022-12-07T06:42:21.024Z,19.00
2022-12-07T06:44:47.391Z,18.65
2022-12-07T06:50:00.385Z,16.45
2022-12-07T06:52:27.068Z,16.23
2022-12-07T06:54:53.425Z,16.23
2022-12-07T06:57:21.124Z,16.20
2022-12-07T06:59:47.449Z,18.23
2022-12-07T07:02:13.894Z,17.27
2022-12-07T07:04:40.865Z,14.65
2022-12-07T07:07:07.241Z,17.20
2022-12-07T07:09:33.591Z,14.90
2022-12-07T07:11:59.977Z,14.68
2022-12-07T07:14:26.316Z,16.60
2022-12-07T07:16:53.121Z,14.43
2022-12-07T07:19:19.542Z,15.38
2022-12-07T07:21:45.917Z,14.15
2022-12-07T07:24:12.240Z,14.48
2022-12-07T07:26:38.577Z,15.85
2022-12-07T07:29:04.943Z,17.23
2022-12-07T07:31:31.474Z,18.40
2022-12-07T07:33:58.294Z,17.13
2022-12-07T07:36:24.672Z,11.88
2022-12-07T07:38:51.018Z,12.27
2022-12-07T07:41:17.450Z,11.32
2022-12-07T07:43:43.862Z,11.18
2022-12-07T07:46:10.367Z,12.70
2022-12-07T07:48:36.816Z,13.88
2022-12-07T07:51:07.491Z,13.10
2022-12-07T07:53:33.943Z,9.88
2022-12-07T07:56:00.407Z,12.70
2022-12-07T07:58:26.845Z,11.32
2022-12-07T08:00:53.351Z,11.07
2022-12-07T08:03:19.713Z,10.65
2022-12-07T08:05:46.198Z,10.55
2022-12-07T08:08:12.702Z,9.73
2022-12-07T08:10:39.670Z,12.18
2022-12-07T08:13:12.025Z,10.85
2022-12-07T08:15:39.564Z,10.52
2022-12-07T08:18:06.184Z,12.13
2022-12-07T08:20:33.735Z,10.00
2022-12-07T08:23:00.453Z,11.20
2022-12-07T08:25:27.548Z,10.35
2022-12-07T08:27:54.271Z,9.63
2022-12-07T08:30:21.651Z,8.25
2022-12-07T08:32:48.896Z,8.73
2022-12-07T08:35:15.683Z,10.68
2022-12-07T08:37:42.321Z,14.13
2022-12-07T08:40:10.608Z,12.68
2022-12-07T08:42:40.986Z,15.60
2022-12-07T08:45:09.799Z,16.00
2022-12-07T08:47:37.429Z,12.35
2022-12-07T08:50:05.408Z,12.20
2022-12-07T08:52:32.457Z,11.95
2022-12-07T08:54:59.889Z,14.35
2022-12-07T08:57:27.623Z,14.38
2022-12-07T08:59:54.009Z,12.23
2022-12-07T09:02:20.430Z,11.98
2022-12-07T09:04:46.891Z,12.57
2022-12-07T09:07:13.567Z,15.38
2022-12-07T09:09:40.001Z,12.35
2022-12-07T09:12:06.394Z,8.32
2022-12-07T09:14:33.161Z,8.50
2022-12-07T09:17:10.491Z,7.57
2022-12-07T09:19:37.206Z,11.00
2022-12-07T09:22:05.600Z,9.27
2022-12-07T09:24:32.708Z,8.32
2022-12-07T09:26:59.128Z,8.70
2022-12-07T09:29:25.839Z,7.32
2022-12-07T09:31:52.855Z,6.85
2022-12-07T09:34:19.441Z,6.75
2022-12-07T09:36:45.797Z,6.18
2022-12-07T09:39:12.193Z,6.25
2022-12-07T09:41:40.321Z,5.60
2022-12-07T09:44:10.973Z,4.68
2022-12-07T09:46:40.423Z,5.28
2022-12-07T09:49:12.800Z,5.90
2022-12-07T09:51:39.172Z,5.90
2022-12-07T09:54:05.639Z,5.30
2022-12-07T09:56:32.269Z,5.90
2022-12-07T09:59:03.111Z,5.95
2022-12-07T10:01:32.300Z,6.43
2022-12-07T10:04:13.670Z,6.03
2022-12-07T10:06:40.103Z,4.70
2022-12-07T10:09:36.152Z,4.90
2022-12-07T10:12:10.796Z,5.75
2022-12-07T10:17:37.975Z,5.57
2022-12-07T10:20:16.375Z,4.50
2022-12-07T10:22:59.265Z,4.45
2022-12-07T10:25:33.629Z,4.45
2022-12-07T10:28:11.719Z,4.32
2022-12-07T10:30:58.078Z,5.90
2022-12-07T10:33:31.346Z,5.93
2022-12-07T10:35:58.224Z,5.50
2022-12-07T10:38:27.914Z,5.88
2022-12-07T10:41:07.846Z,4.65
2022-12-07T10:43:34.613Z,4.85
2022-12-07T10:46:43.335Z,7.25
2022-12-07T10:49:34.263Z,7.78
2022-12-07T10:52:16.471Z,9.85
2022-12-07T10:55:03.268Z,3.03
2022-12-07T10:57:42.331Z,6.63
2022-12-07T11:00:14.863Z,5.70
2022-12-07T11:02:53.755Z,6.20
2022-12-07T11:05:28.874Z,4.55
2022-12-07T11:08:04.522Z,6.40
2022-12-07T11:10:41.704Z,5.75
2022-12-07T11:13:29.039Z,6.82
2022-12-07T11:16:03.423Z,4.43
2022-12-07T11:18:46.196Z,4.97
2022-12-07T11:21:15.265Z,6.28
2022-12-07T11:24:02.931Z,7.32
2022-12-07T11:26:41.262Z,6.85
2022-12-07T11:30:09.110Z,6.47
2022-12-07T11:32:50.313Z,6.30
2022-12-07T11:35:52.875Z,4.82
2022-12-07T11:38:29.784Z,5.95
2022-12-07T11:41:13.409Z,4.85
2022-12-07T11:43:56.372Z,5.32
2022-12-07T11:46:27.195Z,4.63
2022-12-07T11:49:04.168Z,8.20
2022-12-07T11:51:34.176Z,5.18
2022-12-07T11:54:05.985Z,5.85
2022-12-07T11:56:37.661Z,5.47
2022-12-07T11:59:12.101Z,6.05
2022-12-07T12:01:54.450Z,5.28
2022-12-07T12:04:48.900Z,5.30
2022-12-07T12:10:28.279Z,5.03
2022-12-07T12:15:55.903Z,4.22
2022-12-07T12:18:46.845Z,4.18
2022-12-07T12:21:19.801Z,4.47
2022-12-07T12:23:55.824Z,3.90
2022-12-07T12:26:24.307Z,7.57
2022-12-07T12:28:59.655Z,4.68
2022-12-07T12:31:29.156Z,3.13
2022-12-07T12:34:01.160Z,3.38
2022-12-07T12:36:45.221Z,4.65
2022-12-07T12:39:19.811Z,3.85
2022-12-07T12:41:48.733Z,2.60
2022-12-07T12:44:14.940Z,2.88
2022-12-07T12:47:03.180Z,6.07
2022-12-07T12:49:29.429Z,5.68
2022-12-07T12:51:59.812Z,8.68
2022-12-07T12:54:33.959Z,3.42
2022-12-07T12:57:28.669Z,3.85
2022-12-07T13:02:50.834Z,4.38
2022-12-07T13:05:21.222Z,5.95
2022-12-07T13:07:47.706Z,4.88
2022-12-07T13:10:31.796Z,5.63
2022-12-07T13:13:16.249Z,2.80
2022-12-07T13:15:44.355Z,3.30
2022-12-07T13:18:22.589Z,2.97
2022-12-07T13:20:56.598Z,2.72
2022-12-07T13:26:01.126Z,2.53
2022-12-07T13:28:34.413Z,2.92
2022-12-07T13:31:12.596Z,3.05
2022-12-07T13:33:39.068Z,3.38
2022-12-07T13:36:06.029Z,2.15
2022-12-07T13:38:34.497Z,4.80
2022-12-07T13:41:05.503Z,3.10
2022-12-07T13:43:31.850Z,5.10
2022-12-07T13:45:58.978Z,5.10
2022-12-07T13:48:36.147Z,5.40
2022-12-07T13:51:04.360Z,4.55
2022-12-07T13:53:31.625Z,3.42
2022-12-07T13:55:59.670Z,6.63
2022-12-07T13:58:27.750Z,6.78
2022-12-07T14:00:54.344Z,4.18
2022-12-07T14:03:29.260Z,6.35
2022-12-07T14:06:26.462Z,6.95
2022-12-07T14:09:15.806Z,4.18
2022-12-07T14:11:42.214Z,5.60
2022-12-07T14:14:14.977Z,5.88
2022-12-07T14:16:42.520Z,8.23
2022-12-07T14:19:49.080Z,4.70
2022-12-07T14:22:29.009Z,5.05
2022-12-07T14:25:01.346Z,7.55
2022-12-07T14:27:34.878Z,6.63
2022-12-07T14:30:05.699Z,5.25
2022-12-07T14:32:32.400Z,4.95
2022-12-07T14:35:11.850Z,7.25
2022-12-07T14:37:39.667Z,6.70
2022-12-07T14:40:07.016Z,2.65
2022-12-07T14:42:34.169Z,3.67
2022-12-07T14:45:01.054Z,3.90
2022-12-07T14:50:16.434Z,5.85
2022-12-07T14:55:32.208Z,3.17
2022-12-07T14:57:59.630Z,4.60
2022-12-07T15:00:28.296Z,5.93
2022-12-07T15:02:55.254Z,5.38
2022-12-07T15:05:21.973Z,6.70
2022-12-07T15:07:50.064Z,4.78
2022-12-07T15:10:24.254Z,8.02
2022-12-07T15:12:51.917Z,6.40
2022-12-07T15:15:18.596Z,4.72
2022-12-07T15:17:45.202Z,4.55
2022-12-07T15:20:17.425Z,7.35
2022-12-07T15:22:43.863Z,6.45
2022-12-07T15:25:15.588Z,7.55
2022-12-07T15:27:42.294Z,5.25
2022-12-07T15:30:09.118Z,6.80
2022-12-07T15:32:35.475Z,5.32
2022-12-07T15:35:02.326Z,5.50
2022-12-07T15:37:28.884Z,7.57
2022-12-07T15:39:55.297Z,5.03
2022-12-07T15:42:21.667Z,6.72
2022-12-07T15:45:07.059Z,5.15
2022-12-07T15:50:25.487Z,3.17
2022-12-07T15:52:51.883Z,5.50
2022-12-07T15:55:18.301Z,7.93
2022-12-07T15:57:45.002Z,4.30
2022-12-07T16:00:11.738Z,6.75
2022-12-07T16:02:40.016Z,7.82
2022-12-07T16:05:06.995Z,4.60
2022-12-07T16:07:33.337Z,3.88
2022-12-07T16:09:59.995Z,6.63
2022-12-07T16:12:26.463Z,4.32
2022-12-07T16:14:52.906Z,6.40
2022-12-07T16:17:19.342Z,6.95
2022-12-07T16:19:45.801Z,4.25
2022-12-07T16:22:12.278Z,5.43
2022-12-07T16:24:38.665Z,6.72
2022-12-07T16:27:05.067Z,4.72
2022-12-07T16:29:31.450Z,7.55
2022-12-07T16:31:57.906Z,20.75
2022-12-07T16:34:24.350Z,16.33
2022-12-07T16:37:06.410Z,6.43
2022-12-07T16:39:34.177Z,3.05
2022-12-07T16:42:00.893Z,7.03
2022-12-07T16:44:27.277Z,7.93
2022-12-07T16:46:53.745Z,4.05
2022-12-07T16:49:20.587Z,3.35
2022-12-07T16:52:03.079Z,12.20
2022-12-07T16:54:37.435Z,7.55
2022-12-07T16:57:03.856Z,5.70
2022-12-07T16:59:30.274Z,3.90
2022-12-07T17:01:56.661Z,6.88
2022-12-07T17:04:23.317Z,9.07
2022-12-07T17:06:49.743Z,6.47
2022-12-07T17:09:21.170Z,14.27
2022-12-07T17:11:48.139Z,11.15
2022-12-07T17:14:33.162Z,13.00
2022-12-07T17:17:01.956Z,7.35
2022-12-07T17:19:28.333Z,4.88
2022-12-07T17:21:54.802Z,4.22
2022-12-07T17:24:21.315Z,4.75
2022-12-07T17:26:48.603Z,5.32
2022-12-07T17:29:16.643Z,4.85
2022-12-07T17:31:47.860Z,6.50
2022-12-07T17:34:17.502Z,6.57
2022-12-07T17:36:45.810Z,4.90
2022-12-07T17:39:15.560Z,4.03
2022-12-07T17:42:00.326Z,5.28
2022-12-07T17:44:28.030Z,5.25
2022-12-07T17:47:02.620Z,7.88
2022-12-07T17:49:29.254Z,7.55
2022-12-07T17:52:14.064Z,6.38
2022-12-07T17:54:40.499Z,7.78
2022-12-07T17:57:07.123Z,6.18
2022-12-07T17:59:33.820Z,9.85
2022-12-07T18:02:00.441Z,8.00
2022-12-07T18:04:32.687Z,7.75
2022-12-07T18:06:59.389Z,8.20
2022-12-07T18:09:25.754Z,7.43
2022-12-07T18:11:52.141Z,11.07
2022-12-07T18:14:18.480Z,11.82
2022-12-07T18:16:44.971Z,7.50
2022-12-07T18:19:14.428Z,7.00
2022-12-07T18:21:41.225Z,8.52
2022-12-07T18:24:10.583Z,7.63
2022-12-07T18:26:37.411Z,6.90
2022-12-07T18:29:05.890Z,12.68
2022-12-07T18:31:32.699Z,6.63
2022-12-07T18:34:04.741Z,8.63
2022-12-07T18:36:31.823Z,8.82
2022-12-07T18:38:58.271Z,5.80
2022-12-07T18:41:24.608Z,8.13
2022-12-07T18:43:50.996Z,8.25
2022-12-07T18:46:20.144Z,10.45
2022-12-07T18:48:47.043Z,6.07
2022-12-07T18:51:15.066Z,9.50
2022-12-07T18:53:41.624Z,7.68
2022-12-07T18:56:12.096Z,6.55
2022-12-07T18:58:38.669Z,7.43
2022-12-07T19:01:05.140Z,7.00
2022-12-07T19:03:33.693Z,6.57
2022-12-07T19:06:06.147Z,3.97
2022-12-07T19:08:34.284Z,6.97
2022-12-07T19:11:23.693Z,7.35
2022-12-07T19:13:50.697Z,6.43
2022-12-07T19:16:17.182Z,6.97
2022-12-07T19:18:49.349Z,6.57
2022-12-07T19:21:17.516Z,14.77
2022-12-07T19:23:43.852Z,11.93
2022-12-07T19:26:10.224Z,24.88
2022-12-07T19:28:36.682Z,15.57
2022-12-07T19:31:07.211Z,9.25
2022-12-07T19:33:33.828Z,6.55
2022-12-07T19:36:00.435Z,5.70
2022-12-07T19:38:26.782Z,9.90
2022-12-07T19:40:53.132Z,9.70
2022-12-07T19:43:19.523Z,9.15
2022-12-07T19:45:45.993Z,8.85
2022-12-07T19:48:12.424Z,8.80
2022-12-07T19:50:38.809Z,7.72
2022-12-07T19:53:05.606Z,8.35
2022-12-07T19:55:31.957Z,8.15
2022-12-07T19:57:58.301Z,9.60
2022-12-07T20:00:24.632Z,11.95
2022-12-07T20:02:52.143Z,12.05
2022-12-07T20:05:18.600Z,14.85
2022-12-07T20:07:45.026Z,10.93
2022-12-07T20:10:11.485Z,11.48
2022-12-07T20:12:56.892Z,11.23
2022-12-07T20:15:23.621Z,12.43
2022-12-07T20:17:50.099Z,10.35
2022-12-07T20:20:16.451Z,13.27
2022-12-07T20:22:42.804Z,7.18
2022-12-07T20:25:09.544Z,7.22
2022-12-07T20:27:35.870Z,10.15
2022-12-07T20:30:02.217Z,13.38
2022-12-07T20:32:28.552Z,12.15
2022-12-07T20:34:54.913Z,12.27
2022-12-07T20:37:21.282Z,9.25
2022-12-07T20:39:47.612Z,9.75
2022-12-07T20:42:32.275Z,9.93
2022-12-07T20:45:03.097Z,9.65
2022-12-07T20:47:30.195Z,9.50
2022-12-07T20:49:56.794Z,7.05
2022-12-07T20:52:23.156Z,13.57
2022-12-07T20:54:49.526Z,10.45
2022-12-07T20:57:15.926Z,10.48
2022-12-07T20:59:42.314Z,13.50
2022-12-07T21:02:11.428Z,9.52
2022-12-07T21:04:37.896Z,14.73
2022-12-07T21:07:04.299Z,11.65
2022-12-07T21:09:30.659Z,9.77
2022-12-07T21:11:57.066Z,8.75
2022-12-07T21:14:23.571Z,11.13
2022-12-07T21:16:49.910Z,12.98
2022-12-07T21:19:16.571Z,13.05
2022-12-07T21:21:42.947Z,12.30
2022-12-07T21:24:11.702Z,16.38
2022-12-07T21:26:38.876Z,11.30
2022-12-07T21:29:06.858Z,10.00
2022-12-07T21:31:33.838Z,10.02
2022-12-07T21:34:04.479Z,9.75
2022-12-07T21:36:31.107Z,11.85
2022-12-07T21:38:57.533Z,10.77
2022-12-07T21:41:29.559Z,10.75
2022-12-07T21:43:55.992Z,11.65
2022-12-07T21:46:33.357Z,11.95
2022-12-07T21:49:02.052Z,10.88
2022-12-07T21:51:29.730Z,10.88
2022-12-07T21:53:57.554Z,12.85
2022-12-07T21:56:26.756Z,10.43
2022-12-07T21:58:53.960Z,9.77
2022-12-07T22:01:25.914Z,9.52
2022-12-07T22:03:52.801Z,10.55
2022-12-07T22:06:21.823Z,12.50
2022-12-07T22:08:48.682Z,12.02
2022-12-07T22:11:15.569Z,10.43
2022-12-07T22:14:06.699Z,11.88
2022-12-07T22:16:36.584Z,10.23
2022-12-07T22:19:03.083Z,12.38
2022-12-07T22:21:30.207Z,10.10
2022-12-07T22:23:56.550Z,10.13
2022-12-07T22:26:24.554Z,12.18
2022-12-07T22:28:51.237Z,11.05
2022-12-07T22:31:19.299Z,9.05
2022-12-07T22:33:45.808Z,9.43
2022-12-07T22:36:12.756Z,10.15
2022-12-07T22:38:39.656Z,9.93
2022-12-07T22:41:10.946Z,11.60
2022-12-07T22:43:37.511Z,9.45
2022-12-07T22:46:03.984Z,11.88
2022-12-07T22:48:30.331Z,10.32
2022-12-07T22:50:56.737Z,12.25
2022-12-07T22:53:24.265Z,13.57
2022-12-07T22:55:51.644Z,10.85
2022-12-07T22:58:18.791Z,12.80
2022-12-07T23:00:45.363Z,13.18
2022-12-07T23:03:11.908Z,13.50
2022-12-07T23:05:46.195Z,15.63
2022-12-07T23:08:13.199Z,14.48
2022-12-07T23:10:44.862Z,11.75
2022-12-07T23:13:31.629Z,10.68
2022-12-07T23:16:18.261Z,10.85
2022-12-07T23:18:44.641Z,11.63
2022-12-07T23:21:10.997Z,12.80
2022-12-07T23:23:37.371Z,13.15
2022-12-07T23:26:05.395Z,10.85
2022-12-07T23:28:32.444Z,15.00
2022-12-07T23:31:07.161Z,13.88
2022-12-07T23:33:33.621Z,11.07
2022-12-07T23:36:11.115Z,12.30
2022-12-07T23:38:38.097Z,11.38
2022-12-07T23:41:09.140Z,13.55
2022-12-07T23:43:36.368Z,16.45
2022-12-07T23:46:03.549Z,16.52
2022-12-07T23:48:29.923Z,15.05
2022-12-07T23:50:58.200Z,16.85
2022-12-07T23:53:27.441Z,10.63
2022-12-07T23:55:53.826Z,14.30
2022-12-07T23:58:20.151Z,12.85
